Mahoning, Pennsylvania
Current Conditions -  °F | °C
As of 8:53 AM on Sunday 21 Dec 2014 (Local Time) from KSEG Reporting Station
Overcast Overcast  
Wind Chill: 26°   Ceiling: 2800
Heat Index: 32°   Visibility: 10mi
Dew Point: 22°   Wind: 6mph
Humidity: 66%   Direction: 310°NW
Pressure: 30.33"   Gusts: NA
Location:  41.0117°N, 76.6578°W
Report Text: KSEG 211353Z AUTO 31005KT 10SM OVC028 00/M06 A3033 RMK AO2 SLP277 T00001056
Loading
Personal Weather Stations






























Interactive Weather Map New forecast layout! Learn more

10-Day Weather Forecast

Advertisements
Track Severe Weather on mobile